Portada
METAR-TAF:

METAR-TAF

Aeroports :

Phrae, Tailàndia

latitud: 18-10N, longitud: 100-10E, altitud: 161 m

Observació

L'informe es va fer fa 13 hores i 12 minuts, a les 11:00 UTC
Vent calma
Temperatura 27°C
Humitat 74%
Pressió 1012 hPa
Visibilitat: 7000 m

METAR: VTCP 211100Z 00000KT 7000 NSC 27/22 Q1012 NOSIG

Hora: 07:12 (00:12 UTC)

Pronòstic

L'informe es va fer fa 1 hora i 12 minuts, a les 23:00 UTC
Pronòstic vàlid del 22 a les 00 UTC al 22 a les 24 UTC
Vent 5 kt del Sud/Sud-Oest
Visibilitat: 2000 m
Escasses núvols a una alçada de 1200 ft
boirina
Evolucionant progressivament
l' 22 a les 01 UTC al 22 a les 03 UTC
Visibilitat 10 km o més
Escasses núvols a una alçada de 2500 ft

TAF: VTCP 212300Z 2200/2224 20005KT 2000 BR FEW012 BECMG 2201/2203 9999 NSW FEW025

Observacions i pronòstics meteorològics de més de 4000 aeroports (METAR i TAF).

Les estacions disponibles són els punts grocs i vermells al mapa.

Posi el ratolí al punt desitjat per veure el nom de l'estació.

Feu clic per veure les observacions i els pronòstics meteorològics.

Per canviar el mapa: feu clic els botons verds amb una creu de color negre per apropar; al botó verd amb un guió per allunyar la imatge; o en les fletxes verdes per a mapes adjacents.


METAR-TAF: